sensor_id;sensor_type;location;lat;lon;timestamp;P1;durP1;ratioP1;P2;durP2;ratioP2
51066;SDS011;37112;45.892;-123.962;2022-12-29T00:01:26;39.00;;;8.40;;
51066;SDS011;37112;45.892;-123.962;2022-12-29T00:03:44;32.10;;;6.20;;
51066;SDS011;37112;45.892;-123.962;2022-12-29T00:05:59;37.50;;;6.70;;
51066;SDS011;37112;45.892;-123.962;2022-12-29T00:08:13;28.70;;;8.20;;
51066;SDS011;37112;45.892;-123.962;2022-12-29T00:10:27;28.40;;;5.80;;
51066;SDS011;37112;45.892;-123.962;2022-12-29T00:12:45;24.10;;;5.40;;
51066;SDS011;37112;45.892;-123.962;2022-12-29T00:15:18;32.90;;;5.80;;
51066;SDS011;37112;45.892;-123.962;2022-12-29T00:17:48;27.70;;;5.10;;
51066;SDS011;37112;45.892;-123.962;2022-12-29T00:20:01;25.10;;;5.50;;
51066;SDS011;37112;45.892;-123.962;2022-12-29T00:22:32;22.70;;;4.50;;
51066;SDS011;37112;45.892;-123.962;2022-12-29T00:25:03;20.50;;;5.10;;
51066;SDS011;37112;45.892;-123.962;2022-12-29T00:27:35;18.70;;;5.40;;
51066;SDS011;37112;45.892;-123.962;2022-12-29T00:30:14;23.30;;;5.40;;
51066;SDS011;37112;45.892;-123.962;2022-12-29T00:32:45;17.80;;;3.60;;
51066;SDS011;37112;45.892;-123.962;2022-12-29T00:35:18;17.80;;;5.50;;
51066;SDS011;37112;45.892;-123.962;2022-12-29T00:37:36;17.00;;;4.50;;
51066;SDS011;37112;45.892;-123.962;2022-12-29T00:40:09;21.50;;;7.40;;
51066;SDS011;37112;45.892;-123.962;2022-12-29T00:42:46;13.50;;;4.70;;
51066;SDS011;37112;45.892;-123.962;2022-12-29T00:45:17;11.20;;;2.90;;
51066;SDS011;37112;45.892;-123.962;2022-12-29T00:47:35;13.30;;;1.90;;
51066;SDS011;37112;45.892;-123.962;2022-12-29T00:49:53;39.80;;;18.00;;
51066;SDS011;37112;45.892;-123.962;2022-12-29T00:52:07;26.50;;;9.40;;
51066;SDS011;37112;45.892;-123.962;2022-12-29T00:54:24;22.40;;;8.80;;
51066;SDS011;37112;45.892;-123.962;2022-12-29T00:56:44;31.30;;;8.90;;
51066;SDS011;37112;45.892;-123.962;2022-12-29T00:59:01;36.90;;;17.40;;
51066;SDS011;37112;45.892;-123.962;2022-12-29T01:01:16;26.20;;;13.20;;
51066;SDS011;37112;45.892;-123.962;2022-12-29T01:03:31;36.60;;;13.50;;
51066;SDS011;37112;45.892;-123.962;2022-12-29T01:05:48;25.10;;;10.70;;
51066;SDS011;37112;45.892;-123.962;2022-12-29T01:08:02;15.70;;;6.20;;
51066;SDS011;37112;45.892;-123.962;2022-12-29T01:10:16;28.20;;;12.70;;
51066;SDS011;37112;45.892;-123.962;2022-12-29T01:12:32;11.80;;;4.90;;
51066;SDS011;37112;45.892;-123.962;2022-12-29T01:14:53;17.10;;;6.50;;
51066;SDS011;37112;45.892;-123.962;2022-12-29T01:17:10;13.50;;;3.80;;
51066;SDS011;37112;45.892;-123.962;2022-12-29T01:19:23;9.60;;;3.60;;
51066;SDS011;37112;45.892;-123.962;2022-12-29T01:21:37;14.50;;;2.20;;
51066;SDS011;37112;45.892;-123.962;2022-12-29T01:23:51;10.20;;;2.60;;
51066;SDS011;37112;45.892;-123.962;2022-12-29T01:26:10;10.30;;;1.90;;
51066;SDS011;37112;45.892;-123.962;2022-12-29T01:28:24;7.20;;;1.50;;
51066;SDS011;37112;45.892;-123.962;2022-12-29T01:30:38;9.10;;;1.60;;
51066;SDS011;37112;45.892;-123.962;2022-12-29T01:32:52;6.70;;;1.40;;
51066;SDS011;37112;45.892;-123.962;2022-12-29T01:35:07;6.30;;;1.30;;
51066;SDS011;37112;45.892;-123.962;2022-12-29T01:37:21;10.10;;;2.00;;
51066;SDS011;37112;45.892;-123.962;2022-12-29T01:39:35;7.40;;;1.70;;
51066;SDS011;37112;45.892;-123.962;2022-12-29T01:41:49;5.50;;;1.80;;
51066;SDS011;37112;45.892;-123.962;2022-12-29T01:44:39;10.60;;;1.80;;
51066;SDS011;37112;45.892;-123.962;2022-12-29T01:46:58;6.80;;;1.20;;
51066;SDS011;37112;45.892;-123.962;2022-12-29T01:49:13;5.80;;;1.40;;
51066;SDS011;37112;45.892;-123.962;2022-12-29T01:51:29;4.00;;;1.50;;
51066;SDS011;37112;45.892;-123.962;2022-12-29T01:53:45;2.60;;;0.80;;
51066;SDS011;37112;45.892;-123.962;2022-12-29T01:56:01;3.30;;;0.90;;
51066;SDS011;37112;45.892;-123.962;2022-12-29T01:58:19;5.10;;;1.00;;
51066;SDS011;37112;45.892;-123.962;2022-12-29T02:00:35;7.00;;;1.30;;
51066;SDS011;37112;45.892;-123.962;2022-12-29T02:02:50;4.30;;;1.20;;
51066;SDS011;37112;45.892;-123.962;2022-12-29T02:05:07;3.60;;;0.70;;
51066;SDS011;37112;45.892;-123.962;2022-12-29T02:07:26;2.80;;;1.10;;
51066;SDS011;37112;45.892;-123.962;2022-12-29T02:09:41;7.80;;;1.00;;
51066;SDS011;37112;45.892;-123.962;2022-12-29T02:11:57;6.20;;;1.50;;
51066;SDS011;37112;45.892;-123.962;2022-12-29T02:14:11;5.70;;;1.90;;
51066;SDS011;37112;45.892;-123.962;2022-12-29T02:16:32;7.20;;;1.10;;
51066;SDS011;37112;45.892;-123.962;2022-12-29T02:18:58;6.90;;;1.60;;
51066;SDS011;37112;45.892;-123.962;2022-12-29T02:21:43;5.20;;;1.10;;
51066;SDS011;37112;45.892;-123.962;2022-12-29T02:26:53;3.10;;;0.70;;
51066;SDS011;37112;45.892;-123.962;2022-12-29T02:29:25;2.10;;;0.70;;
51066;SDS011;37112;45.892;-123.962;2022-12-29T02:32:00;2.40;;;0.70;;
51066;SDS011;37112;45.892;-123.962;2022-12-29T02:34:20;4.10;;;1.00;;
51066;SDS011;37112;45.892;-123.962;2022-12-29T02:36:45;4.00;;;0.90;;
51066;SDS011;37112;45.892;-123.962;2022-12-29T02:39:09;10.20;;;6.80;;
51066;SDS011;37112;45.892;-123.962;2022-12-29T02:41:32;4.70;;;2.10;;
51066;SDS011;37112;45.892;-123.962;2022-12-29T02:43:52;3.40;;;1.00;;
51066;SDS011;37112;45.892;-123.962;2022-12-29T02:46:11;2.70;;;0.80;;
51066;SDS011;37112;45.892;-123.962;2022-12-29T02:48:30;7.90;;;0.90;;
51066;SDS011;37112;45.892;-123.962;2022-12-29T02:50:50;3.30;;;1.90;;
51066;SDS011;37112;45.892;-123.962;2022-12-29T02:53:09;2.30;;;1.00;;
51066;SDS011;37112;45.892;-123.962;2022-12-29T02:55:49;5.60;;;2.30;;
51066;SDS011;37112;45.892;-123.962;2022-12-29T02:58:14;4.10;;;1.40;;
51066;SDS011;37112;45.892;-123.962;2022-12-29T03:00:30;9.80;;;1.60;;
51066;SDS011;37112;45.892;-123.962;2022-12-29T03:03:00;5.70;;;1.30;;
51066;SDS011;37112;45.892;-123.962;2022-12-29T03:05:37;6.80;;;1.40;;
51066;SDS011;37112;45.892;-123.962;2022-12-29T03:08:06;2.30;;;1.10;;
51066;SDS011;37112;45.892;-123.962;2022-12-29T03:10:33;6.60;;;1.30;;
51066;SDS011;37112;45.892;-123.962;2022-12-29T03:12:56;7.00;;;1.40;;
51066;SDS011;37112;45.892;-123.962;2022-12-29T03:15:36;3.40;;;1.10;;
51066;SDS011;37112;45.892;-123.962;2022-12-29T03:18:13;2.00;;;1.00;;
51066;SDS011;37112;45.892;-123.962;2022-12-29T03:20:32;4.80;;;1.60;;
51066;SDS011;37112;45.892;-123.962;2022-12-29T03:22:55;5.50;;;1.40;;
51066;SDS011;37112;45.892;-123.962;2022-12-29T03:25:14;6.20;;;2.10;;
51066;SDS011;37112;45.892;-123.962;2022-12-29T03:27:31;5.20;;;1.50;;
51066;SDS011;37112;45.892;-123.962;2022-12-29T03:29:50;8.00;;;1.70;;
51066;SDS011;37112;45.892;-123.962;2022-12-29T03:32:06;5.00;;;1.80;;
51066;SDS011;37112;45.892;-123.962;2022-12-29T03:34:24;5.90;;;1.10;;
51066;SDS011;37112;45.892;-123.962;2022-12-29T03:36:41;6.30;;;1.60;;
51066;SDS011;37112;45.892;-123.962;2022-12-29T03:38:59;9.40;;;2.40;;
51066;SDS011;37112;45.892;-123.962;2022-12-29T03:41:21;7.40;;;3.40;;
51066;SDS011;37112;45.892;-123.962;2022-12-29T03:43:41;7.60;;;2.40;;
51066;SDS011;37112;45.892;-123.962;2022-12-29T03:45:55;11.50;;;2.90;;
51066;SDS011;37112;45.892;-123.962;2022-12-29T03:48:08;7.30;;;3.20;;
51066;SDS011;37112;45.892;-123.962;2022-12-29T03:50:23;9.40;;;2.70;;
51066;SDS011;37112;45.892;-123.962;2022-12-29T03:52:37;7.40;;;1.70;;
51066;SDS011;37112;45.892;-123.962;2022-12-29T03:54:51;6.50;;;1.40;;
51066;SDS011;37112;45.892;-123.962;2022-12-29T03:57:05;6.20;;;1.40;;
51066;SDS011;37112;45.892;-123.962;2022-12-29T03:59:41;3.60;;;1.00;;
51066;SDS011;37112;45.892;-123.962;2022-12-29T04:01:55;17.30;;;1.90;;
51066;SDS011;37112;45.892;-123.962;2022-12-29T04:04:09;4.80;;;2.50;;
51066;SDS011;37112;45.892;-123.962;2022-12-29T04:06:24;4.10;;;1.10;;
51066;SDS011;37112;45.892;-123.962;2022-12-29T04:08:42;4.80;;;1.40;;
51066;SDS011;37112;45.892;-123.962;2022-12-29T04:10:55;3.40;;;1.20;;
51066;SDS011;37112;45.892;-123.962;2022-12-29T04:13:09;4.30;;;1.00;;
51066;SDS011;37112;45.892;-123.962;2022-12-29T04:15:24;4.90;;;1.00;;
51066;SDS011;37112;45.892;-123.962;2022-12-29T04:17:38;7.90;;;2.90;;
51066;SDS011;37112;45.892;-123.962;2022-12-29T04:19:52;7.70;;;1.10;;
51066;SDS011;37112;45.892;-123.962;2022-12-29T04:22:27;4.90;;;1.30;;
51066;SDS011;37112;45.892;-123.962;2022-12-29T04:24:41;4.40;;;0.90;;
51066;SDS011;37112;45.892;-123.962;2022-12-29T04:26:54;4.40;;;1.10;;
51066;SDS011;37112;45.892;-123.962;2022-12-29T04:29:28;7.30;;;0.90;;
51066;SDS011;37112;45.892;-123.962;2022-12-29T04:31:58;6.00;;;2.00;;
51066;SDS011;37112;45.892;-123.962;2022-12-29T04:34:16;4.20;;;0.90;;
51066;SDS011;37112;45.892;-123.962;2022-12-29T04:36:29;1.90;;;1.00;;
51066;SDS011;37112;45.892;-123.962;2022-12-29T04:38:43;1.80;;;0.80;;
51066;SDS011;37112;45.892;-123.962;2022-12-29T04:40:58;3.30;;;0.60;;
51066;SDS011;37112;45.892;-123.962;2022-12-29T04:43:14;1.80;;;0.60;;
51066;SDS011;37112;45.892;-123.962;2022-12-29T04:51:26;0.50;;;0.40;;
51066;SDS011;37112;45.892;-123.962;2022-12-29T04:53:40;1.00;;;0.50;;
51066;SDS011;37112;45.892;-123.962;2022-12-29T04:55:54;3.80;;;0.60;;
51066;SDS011;37112;45.892;-123.962;2022-12-29T04:58:08;1.60;;;0.50;;
51066;SDS011;37112;45.892;-123.962;2022-12-29T05:00:28;0.70;;;0.70;;
51066;SDS011;37112;45.892;-123.962;2022-12-29T05:02:45;1.60;;;0.70;;
51066;SDS011;37112;45.892;-123.962;2022-12-29T05:04:59;3.60;;;1.00;;
51066;SDS011;37112;45.892;-123.962;2022-12-29T05:07:17;3.60;;;0.70;;
51066;SDS011;37112;45.892;-123.962;2022-12-29T05:09:32;2.80;;;0.60;;
51066;SDS011;37112;45.892;-123.962;2022-12-29T05:11:46;2.00;;;0.60;;
51066;SDS011;37112;45.892;-123.962;2022-12-29T05:13:59;2.30;;;0.80;;
51066;SDS011;37112;45.892;-123.962;2022-12-29T05:16:14;6.50;;;1.10;;
51066;SDS011;37112;45.892;-123.962;2022-12-29T05:18:29;2.80;;;0.90;;
51066;SDS011;37112;45.892;-123.962;2022-12-29T05:20:43;2.30;;;0.60;;
51066;SDS011;37112;45.892;-123.962;2022-12-29T05:22:59;2.40;;;0.90;;
51066;SDS011;37112;45.892;-123.962;2022-12-29T05:25:13;1.70;;;0.70;;
51066;SDS011;37112;45.892;-123.962;2022-12-29T05:27:33;2.70;;;0.60;;
51066;SDS011;37112;45.892;-123.962;2022-12-29T05:32:27;4.40;;;0.70;;
51066;SDS011;37112;45.892;-123.962;2022-12-29T05:34:41;8.00;;;0.90;;
51066;SDS011;37112;45.892;-123.962;2022-12-29T05:36:57;4.90;;;1.00;;
51066;SDS011;37112;45.892;-123.962;2022-12-29T05:39:11;3.60;;;0.70;;
51066;SDS011;37112;45.892;-123.962;2022-12-29T05:41:30;3.60;;;1.50;;
51066;SDS011;37112;45.892;-123.962;2022-12-29T05:44:13;7.00;;;1.10;;
51066;SDS011;37112;45.892;-123.962;2022-12-29T05:46:50;4.70;;;0.80;;
51066;SDS011;37112;45.892;-123.962;2022-12-29T05:49:14;3.40;;;0.70;;
51066;SDS011;37112;45.892;-123.962;2022-12-29T05:51:44;5.00;;;1.30;;
51066;SDS011;37112;45.892;-123.962;2022-12-29T05:53:58;9.90;;;1.40;;
51066;SDS011;37112;45.892;-123.962;2022-12-29T05:56:12;6.70;;;2.00;;
51066;SDS011;37112;45.892;-123.962;2022-12-29T06:00:45;6.50;;;1.40;;
51066;SDS011;37112;45.892;-123.962;2022-12-29T06:02:59;8.20;;;1.50;;
51066;SDS011;37112;45.892;-123.962;2022-12-29T06:05:12;10.00;;;1.30;;
51066;SDS011;37112;45.892;-123.962;2022-12-29T06:07:27;7.90;;;1.40;;
51066;SDS011;37112;45.892;-123.962;2022-12-29T06:09:42;7.90;;;2.30;;
51066;SDS011;37112;45.892;-123.962;2022-12-29T06:11:56;7.10;;;1.30;;
51066;SDS011;37112;45.892;-123.962;2022-12-29T06:14:10;9.80;;;2.20;;
51066;SDS011;37112;45.892;-123.962;2022-12-29T06:16:23;6.00;;;1.70;;
51066;SDS011;37112;45.892;-123.962;2022-12-29T06:18:39;5.00;;;1.40;;
51066;SDS011;37112;45.892;-123.962;2022-12-29T06:20:53;2.90;;;1.10;;
51066;SDS011;37112;45.892;-123.962;2022-12-29T06:23:09;4.80;;;1.10;;
51066;SDS011;37112;45.892;-123.962;2022-12-29T06:25:23;3.60;;;1.10;;
51066;SDS011;37112;45.892;-123.962;2022-12-29T06:27:39;6.40;;;1.20;;
51066;SDS011;37112;45.892;-123.962;2022-12-29T06:29:53;6.70;;;1.10;;
51066;SDS011;37112;45.892;-123.962;2022-12-29T06:32:08;4.50;;;0.90;;
51066;SDS011;37112;45.892;-123.962;2022-12-29T06:34:27;6.00;;;1.10;;
51066;SDS011;37112;45.892;-123.962;2022-12-29T06:36:41;6.30;;;1.40;;
51066;SDS011;37112;45.892;-123.962;2022-12-29T06:38:55;6.00;;;1.10;;
51066;SDS011;37112;45.892;-123.962;2022-12-29T06:41:08;5.70;;;0.90;;
51066;SDS011;37112;45.892;-123.962;2022-12-29T06:43:41;5.20;;;1.00;;
51066;SDS011;37112;45.892;-123.962;2022-12-29T06:46:30;3.10;;;0.80;;
51066;SDS011;37112;45.892;-123.962;2022-12-29T06:48:44;4.50;;;1.50;;
51066;SDS011;37112;45.892;-123.962;2022-12-29T06:50:57;7.20;;;1.10;;
51066;SDS011;37112;45.892;-123.962;2022-12-29T06:53:11;7.40;;;1.10;;
51066;SDS011;37112;45.892;-123.962;2022-12-29T06:55:24;4.30;;;1.10;;
51066;SDS011;37112;45.892;-123.962;2022-12-29T06:57:37;3.10;;;0.80;;
51066;SDS011;37112;45.892;-123.962;2022-12-29T06:59:51;6.60;;;1.20;;
51066;SDS011;37112;45.892;-123.962;2022-12-29T07:02:05;4.20;;;0.90;;
51066;SDS011;37112;45.892;-123.962;2022-12-29T07:04:22;3.70;;;1.00;;
51066;SDS011;37112;45.892;-123.962;2022-12-29T07:06:36;3.70;;;0.80;;
51066;SDS011;37112;45.892;-123.962;2022-12-29T07:08:50;5.70;;;1.10;;
51066;SDS011;37112;45.892;-123.962;2022-12-29T07:11:05;3.90;;;0.80;;
51066;SDS011;37112;45.892;-123.962;2022-12-29T07:13:19;2.10;;;0.50;;
51066;SDS011;37112;45.892;-123.962;2022-12-29T07:15:33;2.30;;;0.70;;
51066;SDS011;37112;45.892;-123.962;2022-12-29T07:17:47;1.80;;;0.70;;
51066;SDS011;37112;45.892;-123.962;2022-12-29T07:20:01;2.50;;;0.70;;
51066;SDS011;37112;45.892;-123.962;2022-12-29T07:22:16;2.70;;;0.60;;
51066;SDS011;37112;45.892;-123.962;2022-12-29T07:24:29;1.70;;;0.50;;
51066;SDS011;37112;45.892;-123.962;2022-12-29T07:26:43;3.20;;;0.70;;
51066;SDS011;37112;45.892;-123.962;2022-12-29T07:28:57;3.50;;;0.70;;
51066;SDS011;37112;45.892;-123.962;2022-12-29T07:31:15;1.90;;;0.60;;
51066;SDS011;37112;45.892;-123.962;2022-12-29T07:33:30;0.70;;;0.50;;
51066;SDS011;37112;45.892;-123.962;2022-12-29T07:35:43;2.60;;;0.60;;
51066;SDS011;37112;45.892;-123.962;2022-12-29T07:37:57;1.80;;;0.70;;
51066;SDS011;37112;45.892;-123.962;2022-12-29T07:40:12;3.00;;;0.70;;
51066;SDS011;37112;45.892;-123.962;2022-12-29T07:42:26;2.60;;;0.60;;
51066;SDS011;37112;45.892;-123.962;2022-12-29T07:44:40;3.20;;;0.50;;
51066;SDS011;37112;45.892;-123.962;2022-12-29T07:47:12;0.50;;;0.50;;
51066;SDS011;37112;45.892;-123.962;2022-12-29T07:49:26;2.00;;;0.50;;
51066;SDS011;37112;45.892;-123.962;2022-12-29T07:51:40;1.50;;;0.50;;
51066;SDS011;37112;45.892;-123.962;2022-12-29T07:53:53;2.60;;;0.60;;
51066;SDS011;37112;45.892;-123.962;2022-12-29T07:56:08;1.70;;;0.50;;
51066;SDS011;37112;45.892;-123.962;2022-12-29T07:58:22;1.20;;;0.50;;
51066;SDS011;37112;45.892;-123.962;2022-12-29T08:00:36;1.50;;;0.50;;
51066;SDS011;37112;45.892;-123.962;2022-12-29T08:02:50;2.10;;;0.70;;
51066;SDS011;37112;45.892;-123.962;2022-12-29T08:05:04;2.60;;;0.70;;
51066;SDS011;37112;45.892;-123.962;2022-12-29T08:07:18;1.40;;;0.50;;
51066;SDS011;37112;45.892;-123.962;2022-12-29T08:09:32;0.90;;;0.60;;
51066;SDS011;37112;45.892;-123.962;2022-12-29T08:11:46;2.50;;;0.60;;
51066;SDS011;37112;45.892;-123.962;2022-12-29T08:14:00;0.50;;;0.40;;
51066;SDS011;37112;45.892;-123.962;2022-12-29T08:16:14;2.50;;;0.50;;
51066;SDS011;37112;45.892;-123.962;2022-12-29T08:18:27;3.40;;;0.90;;
51066;SDS011;37112;45.892;-123.962;2022-12-29T08:20:41;1.20;;;0.50;;
51066;SDS011;37112;45.892;-123.962;2022-12-29T08:23:01;1.70;;;0.50;;
51066;SDS011;37112;45.892;-123.962;2022-12-29T08:25:15;2.20;;;0.60;;
51066;SDS011;37112;45.892;-123.962;2022-12-29T08:27:30;1.60;;;0.50;;
51066;SDS011;37112;45.892;-123.962;2022-12-29T08:29:43;3.10;;;0.50;;
51066;SDS011;37112;45.892;-123.962;2022-12-29T08:31:57;1.10;;;0.50;;
51066;SDS011;37112;45.892;-123.962;2022-12-29T08:34:11;0.80;;;0.40;;
51066;SDS011;37112;45.892;-123.962;2022-12-29T08:36:25;0.90;;;0.40;;
51066;SDS011;37112;45.892;-123.962;2022-12-29T08:38:39;2.50;;;0.50;;
51066;SDS011;37112;45.892;-123.962;2022-12-29T08:40:53;2.60;;;0.40;;
51066;SDS011;37112;45.892;-123.962;2022-12-29T08:43:07;1.90;;;0.60;;
51066;SDS011;37112;45.892;-123.962;2022-12-29T08:45:24;3.60;;;0.60;;
51066;SDS011;37112;45.892;-123.962;2022-12-29T08:47:38;2.10;;;0.70;;
51066;SDS011;37112;45.892;-123.962;2022-12-29T08:49:51;4.50;;;1.30;;
51066;SDS011;37112;45.892;-123.962;2022-12-29T08:52:05;1.80;;;1.20;;
51066;SDS011;37112;45.892;-123.962;2022-12-29T08:54:19;0.90;;;0.40;;
51066;SDS011;37112;45.892;-123.962;2022-12-29T08:56:32;1.90;;;0.60;;
51066;SDS011;37112;45.892;-123.962;2022-12-29T08:58:46;1.00;;;0.60;;
51066;SDS011;37112;45.892;-123.962;2022-12-29T09:01:01;3.40;;;0.50;;
51066;SDS011;37112;45.892;-123.962;2022-12-29T09:03:16;0.70;;;0.40;;
51066;SDS011;37112;45.892;-123.962;2022-12-29T09:05:50;4.10;;;0.60;;
51066;SDS011;37112;45.892;-123.962;2022-12-29T09:08:04;1.00;;;0.40;;
51066;SDS011;37112;45.892;-123.962;2022-12-29T09:10:18;0.40;;;0.40;;
51066;SDS011;37112;45.892;-123.962;2022-12-29T09:12:33;0.50;;;0.50;;
51066;SDS011;37112;45.892;-123.962;2022-12-29T09:14:47;4.30;;;0.50;;
51066;SDS011;37112;45.892;-123.962;2022-12-29T09:17:01;2.40;;;0.80;;
51066;SDS011;37112;45.892;-123.962;2022-12-29T09:19:32;1.90;;;0.70;;
51066;SDS011;37112;45.892;-123.962;2022-12-29T09:21:45;1.00;;;0.80;;
51066;SDS011;37112;45.892;-123.962;2022-12-29T09:23:59;2.90;;;0.60;;
51066;SDS011;37112;45.892;-123.962;2022-12-29T09:26:13;3.00;;;0.60;;
51066;SDS011;37112;45.892;-123.962;2022-12-29T09:28:27;6.60;;;0.70;;
51066;SDS011;37112;45.892;-123.962;2022-12-29T09:30:41;4.10;;;0.70;;
51066;SDS011;37112;45.892;-123.962;2022-12-29T09:32:54;2.50;;;0.90;;
51066;SDS011;37112;45.892;-123.962;2022-12-29T09:35:08;7.00;;;1.40;;
51066;SDS011;37112;45.892;-123.962;2022-12-29T09:37:21;14.70;;;1.60;;
51066;SDS011;37112;45.892;-123.962;2022-12-29T09:39:35;9.70;;;1.30;;
51066;SDS011;37112;45.892;-123.962;2022-12-29T09:41:49;9.30;;;1.80;;
51066;SDS011;37112;45.892;-123.962;2022-12-29T09:44:15;2.40;;;0.90;;
51066;SDS011;37112;45.892;-123.962;2022-12-29T09:46:34;6.30;;;2.00;;
51066;SDS011;37112;45.892;-123.962;2022-12-29T09:48:51;8.00;;;2.00;;
51066;SDS011;37112;45.892;-123.962;2022-12-29T09:51:21;14.40;;;2.30;;
51066;SDS011;37112;45.892;-123.962;2022-12-29T09:53:37;9.00;;;1.80;;
51066;SDS011;37112;45.892;-123.962;2022-12-29T09:55:54;12.70;;;2.00;;
51066;SDS011;37112;45.892;-123.962;2022-12-29T09:58:13;6.50;;;1.90;;
51066;SDS011;37112;45.892;-123.962;2022-12-29T10:00:36;11.60;;;2.20;;
51066;SDS011;37112;45.892;-123.962;2022-12-29T10:03:02;5.40;;;1.50;;
51066;SDS011;37112;45.892;-123.962;2022-12-29T10:05:33;6.20;;;1.80;;
51066;SDS011;37112;45.892;-123.962;2022-12-29T10:07:52;3.90;;;1.00;;
51066;SDS011;37112;45.892;-123.962;2022-12-29T10:10:19;5.00;;;1.30;;
51066;SDS011;37112;45.892;-123.962;2022-12-29T10:12:46;8.30;;;1.60;;
51066;SDS011;37112;45.892;-123.962;2022-12-29T10:15:12;3.80;;;0.90;;
51066;SDS011;37112;45.892;-123.962;2022-12-29T10:17:36;7.00;;;1.00;;
51066;SDS011;37112;45.892;-123.962;2022-12-29T10:20:11;5.60;;;1.30;;
51066;SDS011;37112;45.892;-123.962;2022-12-29T10:25:22;3.00;;;0.70;;
51066;SDS011;37112;45.892;-123.962;2022-12-29T10:27:39;1.60;;;0.80;;
51066;SDS011;37112;45.892;-123.962;2022-12-29T10:29:54;3.00;;;1.00;;
51066;SDS011;37112;45.892;-123.962;2022-12-29T10:32:13;3.20;;;0.80;;
51066;SDS011;37112;45.892;-123.962;2022-12-29T10:34:36;2.00;;;0.60;;
51066;SDS011;37112;45.892;-123.962;2022-12-29T10:36:55;3.50;;;0.70;;
51066;SDS011;37112;45.892;-123.962;2022-12-29T10:39:14;2.40;;;0.80;;
51066;SDS011;37112;45.892;-123.962;2022-12-29T10:41:36;1.20;;;0.50;;
51066;SDS011;37112;45.892;-123.962;2022-12-29T10:43:57;2.70;;;0.80;;
51066;SDS011;37112;45.892;-123.962;2022-12-29T10:46:12;2.50;;;0.70;;
51066;SDS011;37112;45.892;-123.962;2022-12-29T10:48:30;3.30;;;0.50;;
51066;SDS011;37112;45.892;-123.962;2022-12-29T10:50:45;2.20;;;0.60;;
51066;SDS011;37112;45.892;-123.962;2022-12-29T10:53:07;3.10;;;0.70;;
51066;SDS011;37112;45.892;-123.962;2022-12-29T10:55:30;0.60;;;0.50;;
51066;SDS011;37112;45.892;-123.962;2022-12-29T10:57:47;2.10;;;1.60;;
51066;SDS011;37112;45.892;-123.962;2022-12-29T11:00:04;2.70;;;0.70;;
51066;SDS011;37112;45.892;-123.962;2022-12-29T11:05:14;2.10;;;0.40;;
51066;SDS011;37112;45.892;-123.962;2022-12-29T11:07:33;2.90;;;0.70;;
51066;SDS011;37112;45.892;-123.962;2022-12-29T11:09:47;0.80;;;0.50;;
51066;SDS011;37112;45.892;-123.962;2022-12-29T11:12:01;0.80;;;0.70;;
51066;SDS011;37112;45.892;-123.962;2022-12-29T11:14:33;2.50;;;0.50;;
51066;SDS011;37112;45.892;-123.962;2022-12-29T11:16:56;1.50;;;0.60;;
51066;SDS011;37112;45.892;-123.962;2022-12-29T11:19:23;3.90;;;0.70;;
51066;SDS011;37112;45.892;-123.962;2022-12-29T11:21:47;2.50;;;0.90;;
51066;SDS011;37112;45.892;-123.962;2022-12-29T11:24:02;0.70;;;0.50;;
51066;SDS011;37112;45.892;-123.962;2022-12-29T11:26:28;0.80;;;0.60;;
51066;SDS011;37112;45.892;-123.962;2022-12-29T11:28:43;0.80;;;0.50;;
51066;SDS011;37112;45.892;-123.962;2022-12-29T11:30:58;1.40;;;0.60;;
51066;SDS011;37112;45.892;-123.962;2022-12-29T11:33:14;1.30;;;0.70;;
51066;SDS011;37112;45.892;-123.962;2022-12-29T11:35:32;0.70;;;0.50;;
51066;SDS011;37112;45.892;-123.962;2022-12-29T11:37:49;0.80;;;0.50;;
51066;SDS011;37112;45.892;-123.962;2022-12-29T11:40:15;0.70;;;0.40;;
51066;SDS011;37112;45.892;-123.962;2022-12-29T11:42:32;0.90;;;0.50;;
51066;SDS011;37112;45.892;-123.962;2022-12-29T11:44:49;1.70;;;0.50;;
51066;SDS011;37112;45.892;-123.962;2022-12-29T11:47:04;3.00;;;0.60;;
51066;SDS011;37112;45.892;-123.962;2022-12-29T11:49:21;0.60;;;0.40;;
51066;SDS011;37112;45.892;-123.962;2022-12-29T11:51:37;1.40;;;0.50;;
51066;SDS011;37112;45.892;-123.962;2022-12-29T11:53:56;0.40;;;0.40;;
51066;SDS011;37112;45.892;-123.962;2022-12-29T11:56:12;0.60;;;0.50;;
51066;SDS011;37112;45.892;-123.962;2022-12-29T11:58:31;0.90;;;0.50;;
51066;SDS011;37112;45.892;-123.962;2022-12-29T12:00:46;4.70;;;0.60;;
51066;SDS011;37112;45.892;-123.962;2022-12-29T12:03:03;4.10;;;0.40;;
51066;SDS011;37112;45.892;-123.962;2022-12-29T12:05:24;1.70;;;0.50;;
51066;SDS011;37112;45.892;-123.962;2022-12-29T12:07:44;0.90;;;0.40;;
51066;SDS011;37112;45.892;-123.962;2022-12-29T12:10:00;0.50;;;0.40;;
51066;SDS011;37112;45.892;-123.962;2022-12-29T12:12:20;2.10;;;0.50;;
51066;SDS011;37112;45.892;-123.962;2022-12-29T12:14:41;1.90;;;0.50;;
51066;SDS011;37112;45.892;-123.962;2022-12-29T12:19:30;0.50;;;0.40;;
51066;SDS011;37112;45.892;-123.962;2022-12-29T12:21:50;5.60;;;0.50;;
51066;SDS011;37112;45.892;-123.962;2022-12-29T12:24:19;0.70;;;0.50;;
51066;SDS011;37112;45.892;-123.962;2022-12-29T12:26:49;2.20;;;0.50;;
51066;SDS011;37112;45.892;-123.962;2022-12-29T12:29:13;1.50;;;0.40;;
51066;SDS011;37112;45.892;-123.962;2022-12-29T12:31:39;0.80;;;0.50;;
51066;SDS011;37112;45.892;-123.962;2022-12-29T12:34:00;0.40;;;0.40;;
51066;SDS011;37112;45.892;-123.962;2022-12-29T12:38:59;0.40;;;0.40;;
51066;SDS011;37112;45.892;-123.962;2022-12-29T12:41:19;1.30;;;0.50;;
51066;SDS011;37112;45.892;-123.962;2022-12-29T12:43:45;0.50;;;0.40;;
51066;SDS011;37112;45.892;-123.962;2022-12-29T12:46:04;1.30;;;0.40;;
51066;SDS011;37112;45.892;-123.962;2022-12-29T12:48:41;1.00;;;0.40;;
51066;SDS011;37112;45.892;-123.962;2022-12-29T12:51:05;1.90;;;0.40;;
51066;SDS011;37112;45.892;-123.962;2022-12-29T12:53:33;0.90;;;0.50;;
51066;SDS011;37112;45.892;-123.962;2022-12-29T12:56:00;0.40;;;0.40;;
51066;SDS011;37112;45.892;-123.962;2022-12-29T12:58:27;0.50;;;0.50;;
51066;SDS011;37112;45.892;-123.962;2022-12-29T13:00:54;0.50;;;0.50;;
51066;SDS011;37112;45.892;-123.962;2022-12-29T13:03:21;0.50;;;0.40;;
51066;SDS011;37112;45.892;-123.962;2022-12-29T13:05:54;0.30;;;0.30;;
51066;SDS011;37112;45.892;-123.962;2022-12-29T13:08:30;0.40;;;0.40;;
51066;SDS011;37112;45.892;-123.962;2022-12-29T13:11:01;0.40;;;0.40;;
51066;SDS011;37112;45.892;-123.962;2022-12-29T13:13:37;0.60;;;0.60;;
51066;SDS011;37112;45.892;-123.962;2022-12-29T13:16:09;0.40;;;0.40;;
51066;SDS011;37112;45.892;-123.962;2022-12-29T13:18:30;0.40;;;0.40;;
51066;SDS011;37112;45.892;-123.962;2022-12-29T13:20:55;0.40;;;0.40;;
51066;SDS011;37112;45.892;-123.962;2022-12-29T13:23:15;1.10;;;0.40;;
51066;SDS011;37112;45.892;-123.962;2022-12-29T13:25:37;0.40;;;0.40;;
51066;SDS011;37112;45.892;-123.962;2022-12-29T13:27:59;0.40;;;0.40;;
51066;SDS011;37112;45.892;-123.962;2022-12-29T13:30:17;0.40;;;0.40;;
51066;SDS011;37112;45.892;-123.962;2022-12-29T13:32:34;0.50;;;0.30;;
51066;SDS011;37112;45.892;-123.962;2022-12-29T13:35:00;1.80;;;0.40;;
51066;SDS011;37112;45.892;-123.962;2022-12-29T13:37:23;0.30;;;0.30;;
51066;SDS011;37112;45.892;-123.962;2022-12-29T13:39:42;0.50;;;0.40;;
51066;SDS011;37112;45.892;-123.962;2022-12-29T13:41:58;0.50;;;0.40;;
51066;SDS011;37112;45.892;-123.962;2022-12-29T13:44:17;1.30;;;0.40;;